sensor_id;sensor_type;location;lat;lon;timestamp;P1;durP1;ratioP1;P2;durP2;ratioP2
12314;SDS011;23886;46.614;14.276;2023-03-21T00:01:17;19.53;;;17.43;;
12314;SDS011;23886;46.614;14.276;2023-03-21T00:03:44;20.00;;;17.83;;
12314;SDS011;23886;46.614;14.276;2023-03-21T00:06:13;20.80;;;16.50;;
12314;SDS011;23886;46.614;14.276;2023-03-21T00:08:41;20.30;;;18.10;;
12314;SDS011;23886;46.614;14.276;2023-03-21T00:11:09;19.70;;;17.37;;
12314;SDS011;23886;46.614;14.276;2023-03-21T00:13:37;20.63;;;17.13;;
12314;SDS011;23886;46.614;14.276;2023-03-21T00:16:07;18.73;;;16.63;;
12314;SDS011;23886;46.614;14.276;2023-03-21T00:18:40;19.10;;;16.97;;
12314;SDS011;23886;46.614;14.276;2023-03-21T00:21:11;17.67;;;15.77;;
12314;SDS011;23886;46.614;14.276;2023-03-21T00:23:40;15.77;;;14.27;;
12314;SDS011;23886;46.614;14.276;2023-03-21T00:26:08;17.27;;;15.23;;
12314;SDS011;23886;46.614;14.276;2023-03-21T00:28:36;16.53;;;14.73;;
12314;SDS011;23886;46.614;14.276;2023-03-21T00:31:04;15.77;;;14.17;;
12314;SDS011;23886;46.614;14.276;2023-03-21T00:33:32;20.27;;;16.47;;
12314;SDS011;23886;46.614;14.276;2023-03-21T00:35:59;18.07;;;16.17;;
12314;SDS011;23886;46.614;14.276;2023-03-21T00:38:26;18.07;;;16.17;;
12314;SDS011;23886;46.614;14.276;2023-03-21T00:40:55;18.93;;;16.93;;
12314;SDS011;23886;46.614;14.276;2023-03-21T00:43:22;18.30;;;16.40;;
12314;SDS011;23886;46.614;14.276;2023-03-21T00:45:54;16.80;;;15.10;;
12314;SDS011;23886;46.614;14.276;2023-03-21T00:48:22;17.37;;;15.67;;
12314;SDS011;23886;46.614;14.276;2023-03-21T00:50:50;16.50;;;14.80;;
12314;SDS011;23886;46.614;14.276;2023-03-21T00:53:18;16.83;;;14.60;;
12314;SDS011;23886;46.614;14.276;2023-03-21T00:55:45;16.13;;;14.53;;
12314;SDS011;23886;46.614;14.276;2023-03-21T00:58:14;16.67;;;14.43;;
12314;SDS011;23886;46.614;14.276;2023-03-21T01:00:41;15.40;;;13.80;;
12314;SDS011;23886;46.614;14.276;2023-03-21T01:03:10;14.50;;;13.00;;
12314;SDS011;23886;46.614;14.276;2023-03-21T01:05:38;16.23;;;14.53;;
12314;SDS011;23886;46.614;14.276;2023-03-21T01:08:24;14.73;;;13.20;;
12314;SDS011;23886;46.614;14.276;2023-03-21T01:10:52;14.20;;;12.80;;
12314;SDS011;23886;46.614;14.276;2023-03-21T01:13:22;14.23;;;12.83;;
12314;SDS011;23886;46.614;14.276;2023-03-21T01:15:51;14.80;;;13.30;;
12314;SDS011;23886;46.614;14.276;2023-03-21T01:18:20;15.50;;;13.70;;
12314;SDS011;23886;46.614;14.276;2023-03-21T01:20:49;14.83;;;13.00;;
12314;SDS011;23886;46.614;14.276;2023-03-21T01:23:16;14.77;;;13.33;;
12314;SDS011;23886;46.614;14.276;2023-03-21T01:25:43;15.73;;;13.17;;
12314;SDS011;23886;46.614;14.276;2023-03-21T01:28:12;15.83;;;13.87;;
12314;SDS011;23886;46.614;14.276;2023-03-21T01:30:44;15.40;;;13.83;;
12314;SDS011;23886;46.614;14.276;2023-03-21T01:33:12;14.90;;;13.40;;
12314;SDS011;23886;46.614;14.276;2023-03-21T01:35:39;16.00;;;14.00;;
12314;SDS011;23886;46.614;14.276;2023-03-21T01:38:07;17.23;;;14.30;;
12314;SDS011;23886;46.614;14.276;2023-03-21T01:40:35;16.10;;;14.50;;
12314;SDS011;23886;46.614;14.276;2023-03-21T01:43:03;14.57;;;13.10;;
12314;SDS011;23886;46.614;14.276;2023-03-21T01:48:47;14.53;;;13.13;;
12314;SDS011;23886;46.614;14.276;2023-03-21T01:51:17;14.27;;;12.87;;
12314;SDS011;23886;46.614;14.276;2023-03-21T01:53:47;14.03;;;12.73;;
12314;SDS011;23886;46.614;14.276;2023-03-21T01:56:15;13.43;;;11.90;;
12314;SDS011;23886;46.614;14.276;2023-03-21T01:58:47;13.77;;;12.23;;
12314;SDS011;23886;46.614;14.276;2023-03-21T02:01:16;16.20;;;12.77;;
12314;SDS011;23886;46.614;14.276;2023-03-21T02:03:48;27.97;;;15.43;;
12314;SDS011;23886;46.614;14.276;2023-03-21T02:06:17;42.57;;;16.63;;
12314;SDS011;23886;46.614;14.276;2023-03-21T02:08:55;21.83;;;16.20;;
12314;SDS011;23886;46.614;14.276;2023-03-21T02:11:28;23.03;;;15.87;;
12314;SDS011;23886;46.614;14.276;2023-03-21T02:13:57;18.40;;;15.87;;
12314;SDS011;23886;46.614;14.276;2023-03-21T02:16:28;18.93;;;15.93;;
12314;SDS011;23886;46.614;14.276;2023-03-21T02:19:09;16.70;;;14.47;;
12314;SDS011;23886;46.614;14.276;2023-03-21T02:25:11;26.33;;;16.37;;
12314;SDS011;23886;46.614;14.276;2023-03-21T02:27:56;19.50;;;16.23;;
12314;SDS011;23886;46.614;14.276;2023-03-21T02:30:44;31.37;;;15.80;;
12314;SDS011;23886;46.614;14.276;2023-03-21T02:33:30;41.77;;;17.23;;
12314;SDS011;23886;46.614;14.276;2023-03-21T02:36:29;34.80;;;17.70;;
12314;SDS011;23886;46.614;14.276;2023-03-21T02:39:13;19.03;;;17.10;;
12314;SDS011;23886;46.614;14.276;2023-03-21T02:41:47;18.33;;;16.47;;
12314;SDS011;23886;46.614;14.276;2023-03-21T02:44:20;23.17;;;18.17;;
12314;SDS011;23886;46.614;14.276;2023-03-21T02:46:52;19.77;;;17.60;;
12314;SDS011;23886;46.614;14.276;2023-03-21T02:49:23;21.77;;;17.20;;
12314;SDS011;23886;46.614;14.276;2023-03-21T02:51:56;19.00;;;16.10;;
12314;SDS011;23886;46.614;14.276;2023-03-21T02:54:25;48.43;;;17.60;;
12314;SDS011;23886;46.614;14.276;2023-03-21T02:56:54;39.53;;;18.03;;
12314;SDS011;23886;46.614;14.276;2023-03-21T02:59:24;20.97;;;16.83;;
12314;SDS011;23886;46.614;14.276;2023-03-21T03:01:53;20.00;;;15.63;;
12314;SDS011;23886;46.614;14.276;2023-03-21T03:04:22;23.10;;;16.07;;
12314;SDS011;23886;46.614;14.276;2023-03-21T03:07:02;37.73;;;17.40;;
12314;SDS011;23886;46.614;14.276;2023-03-21T03:09:47;46.03;;;16.73;;
12314;SDS011;23886;46.614;14.276;2023-03-21T03:12:28;39.50;;;17.57;;
12314;SDS011;23886;46.614;14.276;2023-03-21T03:15:06;19.80;;;16.47;;
12314;SDS011;23886;46.614;14.276;2023-03-21T03:17:47;21.37;;;18.67;;
12314;SDS011;23886;46.614;14.276;2023-03-21T03:20:23;103.70;;;21.10;;
12314;SDS011;23886;46.614;14.276;2023-03-21T03:22:59;42.37;;;21.00;;
12314;SDS011;23886;46.614;14.276;2023-03-21T03:25:35;19.50;;;17.70;;
12314;SDS011;23886;46.614;14.276;2023-03-21T03:28:08;21.57;;;18.17;;
12314;SDS011;23886;46.614;14.276;2023-03-21T03:30:36;33.70;;;18.27;;
12314;SDS011;23886;46.614;14.276;2023-03-21T03:33:04;19.87;;;17.80;;
12314;SDS011;23886;46.614;14.276;2023-03-21T03:35:33;140.63;;;21.83;;
12314;SDS011;23886;46.614;14.276;2023-03-21T03:38:03;64.07;;;20.13;;
12314;SDS011;23886;46.614;14.276;2023-03-21T03:40:33;19.13;;;17.23;;
12314;SDS011;23886;46.614;14.276;2023-03-21T03:43:06;37.20;;;18.63;;
12314;SDS011;23886;46.614;14.276;2023-03-21T03:45:38;21.27;;;18.60;;
12314;SDS011;23886;46.614;14.276;2023-03-21T03:48:12;21.00;;;18.67;;
12314;SDS011;23886;46.614;14.276;2023-03-21T03:50:43;28.33;;;18.47;;
12314;SDS011;23886;46.614;14.276;2023-03-21T03:53:18;23.03;;;19.37;;
12314;SDS011;23886;46.614;14.276;2023-03-21T03:55:48;46.07;;;19.83;;
12314;SDS011;23886;46.614;14.276;2023-03-21T03:58:16;41.27;;;20.00;;
12314;SDS011;23886;46.614;14.276;2023-03-21T04:00:44;27.55;;;19.38;;
12314;SDS011;23886;46.614;14.276;2023-03-21T04:03:11;65.77;;;19.73;;
12314;SDS011;23886;46.614;14.276;2023-03-21T04:05:38;21.43;;;17.53;;
12314;SDS011;23886;46.614;14.276;2023-03-21T04:08:06;32.47;;;18.97;;
12314;SDS011;23886;46.614;14.276;2023-03-21T04:10:35;22.10;;;17.30;;
12314;SDS011;23886;46.614;14.276;2023-03-21T04:13:02;30.90;;;17.13;;
12314;SDS011;23886;46.614;14.276;2023-03-21T04:15:29;23.00;;;19.27;;
12314;SDS011;23886;46.614;14.276;2023-03-21T04:17:56;33.07;;;18.63;;
12314;SDS011;23886;46.614;14.276;2023-03-21T04:20:23;68.50;;;19.00;;
12314;SDS011;23886;46.614;14.276;2023-03-21T04:22:50;59.20;;;18.70;;
12314;SDS011;23886;46.614;14.276;2023-03-21T04:25:18;18.33;;;15.87;;
12314;SDS011;23886;46.614;14.276;2023-03-21T04:27:47;36.97;;;17.77;;
12314;SDS011;23886;46.614;14.276;2023-03-21T04:30:14;23.10;;;16.70;;
12314;SDS011;23886;46.614;14.276;2023-03-21T04:32:41;22.50;;;17.73;;
12314;SDS011;23886;46.614;14.276;2023-03-21T04:35:09;19.87;;;18.00;;
12314;SDS011;23886;46.614;14.276;2023-03-21T04:37:36;23.83;;;17.23;;
12314;SDS011;23886;46.614;14.276;2023-03-21T04:40:04;18.10;;;16.17;;
12314;SDS011;23886;46.614;14.276;2023-03-21T04:42:35;24.20;;;18.73;;
12314;SDS011;23886;46.614;14.276;2023-03-21T04:45:04;24.13;;;16.97;;
12314;SDS011;23886;46.614;14.276;2023-03-21T04:47:31;31.80;;;17.57;;
12314;SDS011;23886;46.614;14.276;2023-03-21T04:49:58;25.00;;;17.70;;
12314;SDS011;23886;46.614;14.276;2023-03-21T04:52:25;25.00;;;19.07;;
12314;SDS011;23886;46.614;14.276;2023-03-21T04:54:52;30.13;;;19.20;;
12314;SDS011;23886;46.614;14.276;2023-03-21T04:57:20;44.10;;;19.63;;
12314;SDS011;23886;46.614;14.276;2023-03-21T04:59:47;25.83;;;18.43;;
12314;SDS011;23886;46.614;14.276;2023-03-21T05:02:15;23.00;;;18.53;;
12314;SDS011;23886;46.614;14.276;2023-03-21T05:04:42;30.50;;;19.03;;
12314;SDS011;23886;46.614;14.276;2023-03-21T05:07:09;23.97;;;19.60;;
12314;SDS011;23886;46.614;14.276;2023-03-21T05:09:36;28.50;;;19.47;;
12314;SDS011;23886;46.614;14.276;2023-03-21T05:12:04;28.00;;;20.10;;
12314;SDS011;23886;46.614;14.276;2023-03-21T05:14:31;22.40;;;19.40;;
12314;SDS011;23886;46.614;14.276;2023-03-21T05:16:58;44.13;;;20.77;;
12314;SDS011;23886;46.614;14.276;2023-03-21T05:19:30;41.03;;;19.03;;
12314;SDS011;23886;46.614;14.276;2023-03-21T05:22:00;46.93;;;19.57;;
12314;SDS011;23886;46.614;14.276;2023-03-21T05:24:29;40.47;;;17.80;;
12314;SDS011;23886;46.614;14.276;2023-03-21T05:26:57;17.50;;;15.90;;
12314;SDS011;23886;46.614;14.276;2023-03-21T05:29:26;19.10;;;17.27;;
12314;SDS011;23886;46.614;14.276;2023-03-21T05:31:54;19.70;;;16.50;;
12314;SDS011;23886;46.614;14.276;2023-03-21T05:34:21;34.20;;;18.17;;
12314;SDS011;23886;46.614;14.276;2023-03-21T05:36:49;29.50;;;17.87;;
12314;SDS011;23886;46.614;14.276;2023-03-21T05:39:16;131.63;;;21.60;;
12314;SDS011;23886;46.614;14.276;2023-03-21T05:41:44;22.23;;;17.20;;
12314;SDS011;23886;46.614;14.276;2023-03-21T05:44:11;29.70;;;17.67;;
12314;SDS011;23886;46.614;14.276;2023-03-21T05:46:38;21.07;;;17.50;;
12314;SDS011;23886;46.614;14.276;2023-03-21T05:49:07;26.90;;;17.83;;
12314;SDS011;23886;46.614;14.276;2023-03-21T05:51:35;50.50;;;18.23;;
12314;SDS011;23886;46.614;14.276;2023-03-21T05:54:03;68.87;;;19.53;;
12314;SDS011;23886;46.614;14.276;2023-03-21T05:56:31;19.83;;;15.83;;
12314;SDS011;23886;46.614;14.276;2023-03-21T05:58:58;100.97;;;20.83;;
12314;SDS011;23886;46.614;14.276;2023-03-21T06:01:25;76.43;;;18.33;;
12314;SDS011;23886;46.614;14.276;2023-03-21T06:03:52;104.97;;;20.77;;
12314;SDS011;23886;46.614;14.276;2023-03-21T06:06:19;53.90;;;17.73;;
12314;SDS011;23886;46.614;14.276;2023-03-21T06:08:46;51.27;;;18.70;;
12314;SDS011;23886;46.614;14.276;2023-03-21T06:11:18;111.43;;;20.30;;
12314;SDS011;23886;46.614;14.276;2023-03-21T06:13:48;20.27;;;18.13;;
12314;SDS011;23886;46.614;14.276;2023-03-21T06:16:15;101.40;;;20.00;;
12314;SDS011;23886;46.614;14.276;2023-03-21T06:18:42;30.77;;;15.60;;
12314;SDS011;23886;46.614;14.276;2023-03-21T06:21:09;31.97;;;17.30;;
12314;SDS011;23886;46.614;14.276;2023-03-21T06:23:36;38.83;;;17.07;;
12314;SDS011;23886;46.614;14.276;2023-03-21T06:26:03;60.37;;;17.70;;
12314;SDS011;23886;46.614;14.276;2023-03-21T06:28:32;52.90;;;17.33;;
12314;SDS011;23886;46.614;14.276;2023-03-21T06:30:59;112.43;;;19.33;;
12314;SDS011;23886;46.614;14.276;2023-03-21T06:33:26;43.37;;;16.60;;
12314;SDS011;23886;46.614;14.276;2023-03-21T06:35:53;35.23;;;14.90;;
12314;SDS011;23886;46.614;14.276;2023-03-21T06:38:22;35.57;;;14.10;;
12314;SDS011;23886;46.614;14.276;2023-03-21T06:40:49;17.20;;;13.53;;
12314;SDS011;23886;46.614;14.276;2023-03-21T06:43:16;50.97;;;15.23;;
12314;SDS011;23886;46.614;14.276;2023-03-21T06:45:45;20.87;;;12.80;;
12314;SDS011;23886;46.614;14.276;2023-03-21T06:48:12;16.50;;;13.33;;
12314;SDS011;23886;46.614;14.276;2023-03-21T06:50:39;26.67;;;12.97;;
12314;SDS011;23886;46.614;14.276;2023-03-21T06:53:06;21.93;;;12.50;;
12314;SDS011;23886;46.614;14.276;2023-03-21T06:55:33;48.80;;;13.93;;
12314;SDS011;23886;46.614;14.276;2023-03-21T06:58:00;30.70;;;11.77;;
12314;SDS011;23886;46.614;14.276;2023-03-21T07:00:27;16.00;;;11.87;;
12314;SDS011;23886;46.614;14.276;2023-03-21T07:02:56;15.70;;;12.00;;
12314;SDS011;23886;46.614;14.276;2023-03-21T07:05:22;21.17;;;11.57;;
12314;SDS011;23886;46.614;14.276;2023-03-21T07:07:50;38.70;;;11.67;;
12314;SDS011;23886;46.614;14.276;2023-03-21T07:10:17;16.53;;;10.03;;
12314;SDS011;23886;46.614;14.276;2023-03-21T07:12:44;17.07;;;10.50;;
12314;SDS011;23886;46.614;14.276;2023-03-21T07:15:11;33.03;;;10.80;;
12314;SDS011;23886;46.614;14.276;2023-03-21T07:17:38;56.27;;;11.03;;
12314;SDS011;23886;46.614;14.276;2023-03-21T07:20:06;95.30;;;11.60;;
12314;SDS011;23886;46.614;14.276;2023-03-21T07:22:36;13.00;;;8.53;;
12314;SDS011;23886;46.614;14.276;2023-03-21T07:25:04;10.40;;;9.30;;
12314;SDS011;23886;46.614;14.276;2023-03-21T07:27:32;10.07;;;9.07;;
12314;SDS011;23886;46.614;14.276;2023-03-21T07:29:59;21.50;;;9.20;;
12314;SDS011;23886;46.614;14.276;2023-03-21T07:32:26;44.47;;;9.97;;
12314;SDS011;23886;46.614;14.276;2023-03-21T07:34:54;11.53;;;8.60;;
12314;SDS011;23886;46.614;14.276;2023-03-21T07:37:22;9.37;;;8.43;;
12314;SDS011;23886;46.614;14.276;2023-03-21T07:39:49;18.80;;;9.37;;
12314;SDS011;23886;46.614;14.276;2023-03-21T07:42:16;48.90;;;10.73;;
12314;SDS011;23886;46.614;14.276;2023-03-21T07:44:43;14.13;;;9.20;;
12314;SDS011;23886;46.614;14.276;2023-03-21T07:47:10;10.30;;;9.30;;
12314;SDS011;23886;46.614;14.276;2023-03-21T07:49:37;12.27;;;9.10;;
12314;SDS011;23886;46.614;14.276;2023-03-21T07:52:04;15.03;;;9.40;;
12314;SDS011;23886;46.614;14.276;2023-03-21T07:54:33;28.13;;;8.77;;
12314;SDS011;23886;46.614;14.276;2023-03-21T07:57:00;25.97;;;9.43;;
12314;SDS011;23886;46.614;14.276;2023-03-21T07:59:28;16.07;;;8.90;;
12314;SDS011;23886;46.614;14.276;2023-03-21T08:01:55;12.93;;;9.40;;
12314;SDS011;23886;46.614;14.276;2023-03-21T08:04:22;9.87;;;9.07;;
12314;SDS011;23886;46.614;14.276;2023-03-21T08:06:50;9.33;;;8.53;;
12314;SDS011;23886;46.614;14.276;2023-03-21T08:09:17;8.77;;;7.90;;
12314;SDS011;23886;46.614;14.276;2023-03-21T08:11:45;7.90;;;7.30;;
12314;SDS011;23886;46.614;14.276;2023-03-21T08:14:12;8.27;;;7.47;;
12314;SDS011;23886;46.614;14.276;2023-03-21T08:16:39;7.93;;;7.13;;
12314;SDS011;23886;46.614;14.276;2023-03-21T08:19:06;8.40;;;7.70;;
12314;SDS011;23886;46.614;14.276;2023-03-21T08:21:33;8.87;;;8.00;;
12314;SDS011;23886;46.614;14.276;2023-03-21T08:24:00;9.23;;;8.33;;
12314;SDS011;23886;46.614;14.276;2023-03-21T08:26:27;9.67;;;8.80;;
12314;SDS011;23886;46.614;14.276;2023-03-21T08:28:57;9.40;;;8.60;;
12314;SDS011;23886;46.614;14.276;2023-03-21T08:31:24;8.57;;;7.87;;
12314;SDS011;23886;46.614;14.276;2023-03-21T08:33:52;8.93;;;8.23;;
12314;SDS011;23886;46.614;14.276;2023-03-21T08:36:20;8.87;;;8.17;;
12314;SDS011;23886;46.614;14.276;2023-03-21T08:38:47;9.63;;;8.83;;
12314;SDS011;23886;46.614;14.276;2023-03-21T08:41:18;9.57;;;8.77;;
12314;SDS011;23886;46.614;14.276;2023-03-21T08:43:46;10.53;;;9.53;;
12314;SDS011;23886;46.614;14.276;2023-03-21T08:46:14;11.00;;;10.00;;
12314;SDS011;23886;46.614;14.276;2023-03-21T08:48:42;10.93;;;9.90;;
12314;SDS011;23886;46.614;14.276;2023-03-21T08:51:09;10.17;;;9.17;;
12314;SDS011;23886;46.614;14.276;2023-03-21T08:53:35;10.40;;;9.50;;
12314;SDS011;23886;46.614;14.276;2023-03-21T08:56:03;12.93;;;11.70;;
12314;SDS011;23886;46.614;14.276;2023-03-21T08:58:30;11.40;;;10.00;;
12314;SDS011;23886;46.614;14.276;2023-03-21T09:00:57;10.47;;;9.47;;
12314;SDS011;23886;46.614;14.276;2023-03-21T09:03:26;10.57;;;9.67;;
12314;SDS011;23886;46.614;14.276;2023-03-21T09:05:54;10.30;;;9.40;;
12314;SDS011;23886;46.614;14.276;2023-03-21T09:08:23;9.70;;;8.80;;
12314;SDS011;23886;46.614;14.276;2023-03-21T09:10:51;8.47;;;7.67;;
12314;SDS011;23886;46.614;14.276;2023-03-21T09:13:18;7.07;;;6.47;;
12314;SDS011;23886;46.614;14.276;2023-03-21T09:15:45;7.40;;;6.70;;
12314;SDS011;23886;46.614;14.276;2023-03-21T09:18:13;8.13;;;7.33;;
12314;SDS011;23886;46.614;14.276;2023-03-21T09:20:44;8.60;;;7.80;;
12314;SDS011;23886;46.614;14.276;2023-03-21T09:23:12;7.60;;;6.90;;
12314;SDS011;23886;46.614;14.276;2023-03-21T09:25:40;7.40;;;6.70;;
12314;SDS011;23886;46.614;14.276;2023-03-21T09:28:10;8.10;;;7.40;;
12314;SDS011;23886;46.614;14.276;2023-03-21T09:30:38;7.87;;;7.17;;
12314;SDS011;23886;46.614;14.276;2023-03-21T09:33:05;7.13;;;6.53;;
12314;SDS011;23886;46.614;14.276;2023-03-21T09:35:33;7.00;;;6.30;;
12314;SDS011;23886;46.614;14.276;2023-03-21T09:38:02;5.63;;;5.13;;
12314;SDS011;23886;46.614;14.276;2023-03-21T09:40:33;6.23;;;5.33;;
12314;SDS011;23886;46.614;14.276;2023-03-21T09:43:19;6.10;;;5.50;;
12314;SDS011;23886;46.614;14.276;2023-03-21T09:45:56;6.37;;;5.87;;
12314;SDS011;23886;46.614;14.276;2023-03-21T09:48:31;6.13;;;5.50;;
12314;SDS011;23886;46.614;14.276;2023-03-21T09:51:01;5.87;;;5.27;;
12314;SDS011;23886;46.614;14.276;2023-03-21T09:53:34;5.43;;;4.93;;
12314;SDS011;23886;46.614;14.276;2023-03-21T09:56:04;5.37;;;4.80;;
12314;SDS011;23886;46.614;14.276;2023-03-21T09:58:35;6.30;;;5.37;;
12314;SDS011;23886;46.614;14.276;2023-03-21T10:01:05;9.23;;;5.53;;
12314;SDS011;23886;46.614;14.276;2023-03-21T10:03:46;5.70;;;5.20;;
12314;SDS011;23886;46.614;14.276;2023-03-21T10:06:14;5.20;;;4.70;;
12314;SDS011;23886;46.614;14.276;2023-03-21T10:08:44;5.00;;;4.60;;
12314;SDS011;23886;46.614;14.276;2023-03-21T10:11:14;5.30;;;4.80;;
12314;SDS011;23886;46.614;14.276;2023-03-21T10:13:47;5.10;;;4.30;;
12314;SDS011;23886;46.614;14.276;2023-03-21T10:16:18;4.03;;;3.70;;
12314;SDS011;23886;46.614;14.276;2023-03-21T10:18:49;4.30;;;3.77;;
12314;SDS011;23886;46.614;14.276;2023-03-21T10:21:18;4.43;;;4.03;;
12314;SDS011;23886;46.614;14.276;2023-03-21T10:23:48;4.23;;;3.83;;
12314;SDS011;23886;46.614;14.276;2023-03-21T10:26:17;3.97;;;3.60;;
12314;SDS011;23886;46.614;14.276;2023-03-21T10:28:45;4.43;;;4.03;;
12314;SDS011;23886;46.614;14.276;2023-03-21T10:31:13;4.70;;;4.07;;
12314;SDS011;23886;46.614;14.276;2023-03-21T10:33:43;3.87;;;3.47;;
12314;SDS011;23886;46.614;14.276;2023-03-21T10:36:13;3.43;;;3.13;;
12314;SDS011;23886;46.614;14.276;2023-03-21T10:38:44;3.47;;;3.17;;
12314;SDS011;23886;46.614;14.276;2023-03-21T10:41:15;5.47;;;2.90;;
12314;SDS011;23886;46.614;14.276;2023-03-21T10:43:42;3.67;;;3.00;;
12314;SDS011;23886;46.614;14.276;2023-03-21T10:46:11;3.23;;;2.93;;
12314;SDS011;23886;46.614;14.276;2023-03-21T10:48:42;6.20;;;3.13;;
12314;SDS011;23886;46.614;14.276;2023-03-21T10:51:13;3.83;;;3.00;;
12314;SDS011;23886;46.614;14.276;2023-03-21T10:53:44;3.07;;;2.87;;
12314;SDS011;23886;46.614;14.276;2023-03-21T10:56:17;3.53;;;3.27;;
12314;SDS011;23886;46.614;14.276;2023-03-21T10:58:48;3.00;;;2.70;;
12314;SDS011;23886;46.614;14.276;2023-03-21T11:01:20;3.97;;;3.50;;
12314;SDS011;23886;46.614;14.276;2023-03-21T11:03:55;4.27;;;3.40;;
12314;SDS011;23886;46.614;14.276;2023-03-21T11:06:28;5.60;;;3.67;;
12314;SDS011;23886;46.614;14.276;2023-03-21T11:08:59;4.40;;;2.93;;
12314;SDS011;23886;46.614;14.276;2023-03-21T11:11:35;3.60;;;3.30;;
12314;SDS011;23886;46.614;14.276;2023-03-21T11:14:04;3.40;;;3.10;;
12314;SDS011;23886;46.614;14.276;2023-03-21T11:16:38;3.70;;;2.87;;
12314;SDS011;23886;46.614;14.276;2023-03-21T11:19:13;2.60;;;2.40;;
12314;SDS011;23886;46.614;14.276;2023-03-21T11:21:42;4.50;;;3.00;;
12314;SDS011;23886;46.614;14.276;2023-03-21T11:24:11;3.80;;;2.77;;
12314;SDS011;23886;46.614;14.276;2023-03-21T11:26:42;4.10;;;3.20;;
12314;SDS011;23886;46.614;14.276;2023-03-21T11:29:14;3.60;;;3.27;;
12314;SDS011;23886;46.614;14.276;2023-03-21T11:31:51;5.37;;;3.30;;
12314;SDS011;23886;46.614;14.276;2023-03-21T11:34:25;3.57;;;3.13;;
12314;SDS011;23886;46.614;14.276;2023-03-21T11:36:59;3.80;;;3.40;;
12314;SDS011;23886;46.614;14.276;2023-03-21T11:39:32;3.50;;;3.20;;
12314;SDS011;23886;46.614;14.276;2023-03-21T11:42:02;4.60;;;3.73;;
12314;SDS011;23886;46.614;14.276;2023-03-21T11:44:31;4.13;;;3.60;;
12314;SDS011;23886;46.614;14.276;2023-03-21T11:46:59;3.47;;;3.13;;
12314;SDS011;23886;46.614;14.276;2023-03-21T11:49:27;3.83;;;3.50;;
12314;SDS011;23886;46.614;14.276;2023-03-21T11:52:01;3.87;;;3.57;;
12314;SDS011;23886;46.614;14.276;2023-03-21T11:54:47;3.30;;;3.00;;
12314;SDS011;23886;46.614;14.276;2023-03-21T11:57:31;3.90;;;3.30;;
12314;SDS011;23886;46.614;14.276;2023-03-21T12:00:06;4.20;;;2.90;;
12314;SDS011;23886;46.614;14.276;2023-03-21T12:02:49;4.13;;;3.10;;
12314;SDS011;23886;46.614;14.276;2023-03-21T12:05:36;3.50;;;3.20;;
12314;SDS011;23886;46.614;14.276;2023-03-21T12:08:11;4.13;;;3.30;;
12314;SDS011;23886;46.614;14.276;2023-03-21T12:10:51;3.60;;;3.30;;
12314;SDS011;23886;46.614;14.276;2023-03-21T12:13:30;3.30;;;3.00;;
12314;SDS011;23886;46.614;14.276;2023-03-21T12:16:10;3.30;;;3.00;;
12314;SDS011;23886;46.614;14.276;2023-03-21T12:18:53;2.93;;;2.73;;
12314;SDS011;23886;46.614;14.276;2023-03-21T12:21:29;6.20;;;3.30;;
12314;SDS011;23886;46.614;14.276;2023-03-21T12:24:01;3.80;;;3.47;;
12314;SDS011;23886;46.614;14.276;2023-03-21T12:26:34;3.73;;;3.33;;
12314;SDS011;23886;46.614;14.276;2023-03-21T12:29:31;4.80;;;3.20;;
12314;SDS011;23886;46.614;14.276;2023-03-21T12:32:09;3.40;;;3.10;;
12314;SDS011;23886;46.614;14.276;2023-03-21T12:34:50;4.00;;;3.60;;
12314;SDS011;23886;46.614;14.276;2023-03-21T12:37:30;6.17;;;3.53;;
12314;SDS011;23886;46.614;14.276;2023-03-21T12:40:04;3.67;;;3.37;;
12314;SDS011;23886;46.614;14.276;2023-03-21T12:42:44;3.90;;;3.33;;
12314;SDS011;23886;46.614;14.276;2023-03-21T12:45:24;3.80;;;2.90;;
12314;SDS011;23886;46.614;14.276;2023-03-21T12:47:56;2.97;;;2.63;;
12314;SDS011;23886;46.614;14.276;2023-03-21T12:50:29;3.47;;;2.50;;
12314;SDS011;23886;46.614;14.276;2023-03-21T12:53:13;2.57;;;2.30;;
12314;SDS011;23886;46.614;14.276;2023-03-21T12:55:52;2.47;;;2.27;;
12314;SDS011;23886;46.614;14.276;2023-03-21T12:58:22;3.10;;;2.10;;
12314;SDS011;23886;46.614;14.276;2023-03-21T13:00:54;2.83;;;2.57;;
12314;SDS011;23886;46.614;14.276;2023-03-21T13:03:25;3.50;;;2.20;;
12314;SDS011;23886;46.614;14.276;2023-03-21T13:05:57;3.20;;;2.10;;
12314;SDS011;23886;46.614;14.276;2023-03-21T13:08:28;2.30;;;2.10;;
12314;SDS011;23886;46.614;14.276;2023-03-21T13:11:00;3.57;;;2.20;;
12314;SDS011;23886;46.614;14.276;2023-03-21T13:13:30;2.57;;;2.37;;
12314;SDS011;23886;46.614;14.276;2023-03-21T13:16:07;3.23;;;2.23;;
12314;SDS011;23886;46.614;14.276;2023-03-21T13:18:40;3.20;;;2.20;;
12314;SDS011;23886;46.614;14.276;2023-03-21T13:21:16;4.23;;;2.10;;
12314;SDS011;23886;46.614;14.276;2023-03-21T13:23:59;3.37;;;2.20;;
12314;SDS011;23886;46.614;14.276;2023-03-21T13:26:32;2.50;;;2.30;;
12314;SDS011;23886;46.614;14.276;2023-03-21T13:29:11;2.60;;;2.10;;
12314;SDS011;23886;46.614;14.276;2023-03-21T13:31:44;2.27;;;2.07;;
12314;SDS011;23886;46.614;14.276;2023-03-21T13:34:14;3.10;;;2.30;;
12314;SDS011;23886;46.614;14.276;2023-03-21T13:36:44;2.23;;;2.00;;
12314;SDS011;23886;46.614;14.276;2023-03-21T13:39:16;2.77;;;2.13;;
12314;SDS011;23886;46.614;14.276;2023-03-21T13:41:44;4.70;;;2.10;;
12314;SDS011;23886;46.614;14.276;2023-03-21T13:44:22;3.93;;;2.73;;
12314;SDS011;23886;46.614;14.276;2023-03-21T13:47:00;3.40;;;3.10;;
12314;SDS011;23886;46.614;14.276;2023-03-21T13:49:29;3.00;;;1.90;;
12314;SDS011;23886;46.614;14.276;2023-03-21T13:51:58;2.35;;;2.15;;
12314;SDS011;23886;46.614;14.276;2023-03-21T13:54:28;3.67;;;2.10;;
12314;SDS011;23886;46.614;14.276;2023-03-21T13:57:23;2.25;;;2.05;;
12314;SDS011;23886;46.614;14.276;2023-03-21T14:02:53;2.35;;;2.10;;
12314;SDS011;23886;46.614;14.276;2023-03-21T14:05:23;4.93;;;2.47;;
12314;SDS011;23886;46.614;14.276;2023-03-21T14:07:52;4.10;;;1.90;;
12314;SDS011;23886;46.614;14.276;2023-03-21T14:10:25;2.30;;;2.10;;
12314;SDS011;23886;46.614;14.276;2023-03-21T14:12:56;1.83;;;1.73;;
12314;SDS011;23886;46.614;14.276;2023-03-21T14:15:24;1.98;;;1.50;;
12314;SDS011;23886;46.614;14.276;2023-03-21T14:17:56;2.40;;;1.75;;
12314;SDS011;23886;46.614;14.276;2023-03-21T14:20:27;1.60;;;1.50;;
12314;SDS011;23886;46.614;14.276;2023-03-21T14:22:57;5.53;;;1.60;;
12314;SDS011;23886;46.614;14.276;2023-03-21T14:25:31;2.83;;;2.00;;
12314;SDS011;23886;46.614;14.276;2023-03-21T14:28:02;2.00;;;1.80;;
12314;SDS011;23886;46.614;14.276;2023-03-21T14:30:31;1.42;;;1.30;;
12314;SDS011;23886;46.614;14.276;2023-03-21T14:33:04;2.25;;;1.70;;
12314;SDS011;23886;46.614;14.276;2023-03-21T14:35:39;1.50;;;1.40;;
12314;SDS011;23886;46.614;14.276;2023-03-21T14:38:07;1.85;;;1.38;;
12314;SDS011;23886;46.614;14.276;2023-03-21T14:40:45;2.92;;;1.63;;
12314;SDS011;23886;46.614;14.276;2023-03-21T14:43:13;1.85;;;1.45;;
12314;SDS011;23886;46.614;14.276;2023-03-21T14:45:40;1.45;;;1.35;;
12314;SDS011;23886;46.614;14.276;2023-03-21T14:48:09;2.28;;;1.60;;
12314;SDS011;23886;46.614;14.276;2023-03-21T14:50:40;2.28;;;1.58;;